Cullowhee, North Carolina
Current Conditions -  °F | °C
As of 9:54 AM on Monday 24 Nov 2014 (Local Time) from KAVL Reporting Station
Clear Clear  
Wind Chill: 60°   Ceiling: Unl
Heat Index: 60°   Visibility: 10mi
Dew Point: 51°   Wind: 14mph
Humidity: 72%   Direction: 180°S
Pressure: 29.77"   Gusts: 23mph
Location:  35.31°N, 83.18°W
Report Text: KAVL 241454Z 18012G20KT 10SM CLR 16/11 A2977 RMK AO2 SLP066 T01560106 50008
Loading
Personal Weather Stations






























Interactive Weather Map New forecast layout! Learn more

10-Day Weather Forecast

Advertisements
Track Severe Weather on mobile